sensor_id;sensor_type;location;lat;lon;timestamp;P1;durP1;ratioP1;P2;durP2;ratioP2
78205;SDS011;67480;48.920;12.880;2023-02-15T00:02:22;16.33;;;8.85;;
78205;SDS011;67480;48.920;12.880;2023-02-15T00:04:49;15.88;;;8.63;;
78205;SDS011;67480;48.920;12.880;2023-02-15T00:07:15;15.35;;;8.95;;
78205;SDS011;67480;48.920;12.880;2023-02-15T00:09:42;15.68;;;7.80;;
78205;SDS011;67480;48.920;12.880;2023-02-15T00:12:09;12.85;;;8.25;;
78205;SDS011;67480;48.920;12.880;2023-02-15T00:14:35;11.68;;;7.55;;
78205;SDS011;67480;48.920;12.880;2023-02-15T00:17:00;14.60;;;8.00;;
78205;SDS011;67480;48.920;12.880;2023-02-15T00:19:26;13.70;;;8.10;;
78205;SDS011;67480;48.920;12.880;2023-02-15T00:21:51;14.88;;;7.85;;
78205;SDS011;67480;48.920;12.880;2023-02-15T00:24:17;16.73;;;8.77;;
78205;SDS011;67480;48.920;12.880;2023-02-15T00:26:44;12.55;;;7.43;;
78205;SDS011;67480;48.920;12.880;2023-02-15T00:29:10;22.40;;;8.75;;
78205;SDS011;67480;48.920;12.880;2023-02-15T00:31:36;13.95;;;7.78;;
78205;SDS011;67480;48.920;12.880;2023-02-15T00:34:03;17.30;;;8.95;;
78205;SDS011;67480;48.920;12.880;2023-02-15T00:36:30;14.07;;;7.30;;
78205;SDS011;67480;48.920;12.880;2023-02-15T00:38:56;15.55;;;8.88;;
78205;SDS011;67480;48.920;12.880;2023-02-15T00:41:21;18.92;;;9.68;;
78205;SDS011;67480;48.920;12.880;2023-02-15T00:43:47;14.82;;;8.48;;
78205;SDS011;67480;48.920;12.880;2023-02-15T00:46:12;19.15;;;7.88;;
78205;SDS011;67480;48.920;12.880;2023-02-15T00:48:37;20.50;;;8.80;;
78205;SDS011;67480;48.920;12.880;2023-02-15T00:51:03;15.40;;;8.90;;
78205;SDS011;67480;48.920;12.880;2023-02-15T00:53:28;13.63;;;7.88;;
78205;SDS011;67480;48.920;12.880;2023-02-15T00:55:54;13.98;;;7.68;;
78205;SDS011;67480;48.920;12.880;2023-02-15T00:58:20;14.07;;;7.70;;
78205;SDS011;67480;48.920;12.880;2023-02-15T01:00:46;15.90;;;8.65;;
78205;SDS011;67480;48.920;12.880;2023-02-15T01:03:12;23.83;;;8.25;;
78205;SDS011;67480;48.920;12.880;2023-02-15T01:05:39;77.97;;;13.77;;
78205;SDS011;67480;48.920;12.880;2023-02-15T01:08:05;45.30;;;10.35;;
78205;SDS011;67480;48.920;12.880;2023-02-15T01:10:31;22.58;;;8.23;;
78205;SDS011;67480;48.920;12.880;2023-02-15T01:12:56;20.17;;;7.88;;
78205;SDS011;67480;48.920;12.880;2023-02-15T01:15:23;40.70;;;10.27;;
78205;SDS011;67480;48.920;12.880;2023-02-15T01:17:48;38.00;;;10.23;;
78205;SDS011;67480;48.920;12.880;2023-02-15T01:20:20;47.40;;;9.38;;
78205;SDS011;67480;48.920;12.880;2023-02-15T01:22:48;41.20;;;9.68;;
78205;SDS011;67480;48.920;12.880;2023-02-15T01:25:15;33.63;;;9.68;;
78205;SDS011;67480;48.920;12.880;2023-02-15T01:27:41;27.25;;;9.60;;
78205;SDS011;67480;48.920;12.880;2023-02-15T01:30:06;37.80;;;10.85;;
78205;SDS011;67480;48.920;12.880;2023-02-15T01:32:32;30.75;;;10.88;;
78205;SDS011;67480;48.920;12.880;2023-02-15T01:34:57;16.58;;;9.48;;
78205;SDS011;67480;48.920;12.880;2023-02-15T01:37:22;14.98;;;8.48;;
78205;SDS011;67480;48.920;12.880;2023-02-15T01:39:48;15.98;;;7.90;;
78205;SDS011;67480;48.920;12.880;2023-02-15T01:42:13;13.95;;;8.48;;
78205;SDS011;67480;48.920;12.880;2023-02-15T01:52:49;13.05;;;8.55;;
78205;SDS011;67480;48.920;12.880;2023-02-15T01:55:17;15.95;;;9.13;;
78205;SDS011;67480;48.920;12.880;2023-02-15T01:57:43;20.08;;;10.02;;
78205;SDS011;67480;48.920;12.880;2023-02-15T02:00:11;20.85;;;10.40;;
78205;SDS011;67480;48.920;12.880;2023-02-15T02:02:38;24.27;;;10.43;;
78205;SDS011;67480;48.920;12.880;2023-02-15T02:05:05;22.73;;;11.05;;
78205;SDS011;67480;48.920;12.880;2023-02-15T02:07:33;36.38;;;9.70;;
78205;SDS011;67480;48.920;12.880;2023-02-15T02:10:05;17.33;;;9.50;;
78205;SDS011;67480;48.920;12.880;2023-02-15T02:12:31;13.90;;;8.40;;
78205;SDS011;67480;48.920;12.880;2023-02-15T02:14:57;13.38;;;7.90;;
78205;SDS011;67480;48.920;12.880;2023-02-15T02:23:23;16.58;;;8.73;;
78205;SDS011;67480;48.920;12.880;2023-02-15T02:36:49;19.90;;;9.05;;
78205;SDS011;67480;48.920;12.880;2023-02-15T02:44:43;12.63;;;7.60;;
78205;SDS011;67480;48.920;12.880;2023-02-15T02:47:20;15.05;;;8.43;;
78205;SDS011;67480;48.920;12.880;2023-02-15T02:49:52;34.67;;;8.20;;
78205;SDS011;67480;48.920;12.880;2023-02-15T02:52:34;42.72;;;8.88;;
78205;SDS011;67480;48.920;12.880;2023-02-15T02:55:25;20.00;;;8.32;;
78205;SDS011;67480;48.920;12.880;2023-02-15T02:57:57;15.25;;;8.13;;
78205;SDS011;67480;48.920;12.880;2023-02-15T03:00:25;20.65;;;8.07;;
78205;SDS011;67480;48.920;12.880;2023-02-15T03:02:56;26.13;;;8.60;;
78205;SDS011;67480;48.920;12.880;2023-02-15T03:05:29;15.80;;;8.18;;
78205;SDS011;67480;48.920;12.880;2023-02-15T03:07:57;17.38;;;8.02;;
78205;SDS011;67480;48.920;12.880;2023-02-15T03:10:25;14.15;;;7.55;;
78205;SDS011;67480;48.920;12.880;2023-02-15T03:12:52;27.15;;;8.32;;
78205;SDS011;67480;48.920;12.880;2023-02-15T03:15:22;12.73;;;7.57;;
78205;SDS011;67480;48.920;12.880;2023-02-15T03:17:57;19.73;;;7.90;;
78205;SDS011;67480;48.920;12.880;2023-02-15T03:20:28;27.35;;;8.25;;
78205;SDS011;67480;48.920;12.880;2023-02-15T03:23:06;16.70;;;8.82;;
78205;SDS011;67480;48.920;12.880;2023-02-15T03:25:38;15.85;;;8.00;;
78205;SDS011;67480;48.920;12.880;2023-02-15T03:28:07;19.27;;;7.45;;
78205;SDS011;67480;48.920;12.880;2023-02-15T03:30:36;15.55;;;7.10;;
78205;SDS011;67480;48.920;12.880;2023-02-15T03:33:04;13.13;;;7.55;;
78205;SDS011;67480;48.920;12.880;2023-02-15T03:35:33;13.57;;;7.47;;
78205;SDS011;67480;48.920;12.880;2023-02-15T03:38:04;13.85;;;7.50;;
78205;SDS011;67480;48.920;12.880;2023-02-15T03:40:41;12.10;;;6.75;;
78205;SDS011;67480;48.920;12.880;2023-02-15T03:46:08;11.32;;;6.57;;
78205;SDS011;67480;48.920;12.880;2023-02-15T03:48:40;11.82;;;7.35;;
78205;SDS011;67480;48.920;12.880;2023-02-15T03:51:12;11.18;;;6.57;;
78205;SDS011;67480;48.920;12.880;2023-02-15T03:54:16;10.65;;;6.60;;
78205;SDS011;67480;48.920;12.880;2023-02-15T03:57:06;11.10;;;7.50;;
78205;SDS011;67480;48.920;12.880;2023-02-15T03:59:53;11.38;;;7.10;;
78205;SDS011;67480;48.920;12.880;2023-02-15T04:02:52;12.35;;;7.38;;
78205;SDS011;67480;48.920;12.880;2023-02-15T04:05:30;9.95;;;6.78;;
78205;SDS011;67480;48.920;12.880;2023-02-15T04:07:55;14.20;;;7.75;;
78205;SDS011;67480;48.920;12.880;2023-02-15T04:10:20;15.93;;;6.90;;
78205;SDS011;67480;48.920;12.880;2023-02-15T04:13:04;14.02;;;6.65;;
78205;SDS011;67480;48.920;12.880;2023-02-15T04:15:29;12.05;;;7.07;;
78205;SDS011;67480;48.920;12.880;2023-02-15T04:18:13;12.23;;;7.65;;
78205;SDS011;67480;48.920;12.880;2023-02-15T04:20:39;12.93;;;7.28;;
78205;SDS011;67480;48.920;12.880;2023-02-15T04:23:27;11.18;;;6.20;;
78205;SDS011;67480;48.920;12.880;2023-02-15T04:26:12;19.10;;;5.95;;
78205;SDS011;67480;48.920;12.880;2023-02-15T04:28:37;16.50;;;7.70;;
78205;SDS011;67480;48.920;12.880;2023-02-15T04:31:02;12.10;;;7.15;;
78205;SDS011;67480;48.920;12.880;2023-02-15T04:33:28;12.57;;;7.35;;
78205;SDS011;67480;48.920;12.880;2023-02-15T04:35:53;13.32;;;7.75;;
78205;SDS011;67480;48.920;12.880;2023-02-15T04:38:18;15.63;;;7.18;;
78205;SDS011;67480;48.920;12.880;2023-02-15T04:40:44;11.45;;;7.22;;
78205;SDS011;67480;48.920;12.880;2023-02-15T04:43:09;11.93;;;7.65;;
78205;SDS011;67480;48.920;12.880;2023-02-15T04:45:34;12.02;;;7.00;;
78205;SDS011;67480;48.920;12.880;2023-02-15T04:47:59;13.23;;;7.88;;
78205;SDS011;67480;48.920;12.880;2023-02-15T04:50:25;11.55;;;7.28;;
78205;SDS011;67480;48.920;12.880;2023-02-15T04:52:50;10.48;;;5.97;;
78205;SDS011;67480;48.920;12.880;2023-02-15T04:55:15;11.82;;;6.53;;
78205;SDS011;67480;48.920;12.880;2023-02-15T04:57:41;13.68;;;7.22;;
78205;SDS011;67480;48.920;12.880;2023-02-15T05:00:06;13.52;;;7.97;;
78205;SDS011;67480;48.920;12.880;2023-02-15T05:02:33;10.98;;;6.55;;
78205;SDS011;67480;48.920;12.880;2023-02-15T05:04:59;11.52;;;6.65;;
78205;SDS011;67480;48.920;12.880;2023-02-15T05:07:24;9.80;;;6.45;;
78205;SDS011;67480;48.920;12.880;2023-02-15T05:09:49;11.90;;;7.63;;
78205;SDS011;67480;48.920;12.880;2023-02-15T05:12:14;15.32;;;7.65;;
78205;SDS011;67480;48.920;12.880;2023-02-15T05:14:40;17.42;;;7.30;;
78205;SDS011;67480;48.920;12.880;2023-02-15T05:17:05;14.63;;;7.18;;
78205;SDS011;67480;48.920;12.880;2023-02-15T05:19:30;14.57;;;7.00;;
78205;SDS011;67480;48.920;12.880;2023-02-15T05:21:56;14.45;;;6.97;;
78205;SDS011;67480;48.920;12.880;2023-02-15T05:24:21;13.13;;;7.03;;
78205;SDS011;67480;48.920;12.880;2023-02-15T05:27:05;17.25;;;7.53;;
78205;SDS011;67480;48.920;12.880;2023-02-15T05:29:48;11.98;;;7.00;;
78205;SDS011;67480;48.920;12.880;2023-02-15T05:32:14;10.85;;;6.85;;
78205;SDS011;67480;48.920;12.880;2023-02-15T05:34:39;17.95;;;7.70;;
78205;SDS011;67480;48.920;12.880;2023-02-15T05:37:05;14.52;;;6.97;;
78205;SDS011;67480;48.920;12.880;2023-02-15T05:39:30;13.02;;;6.45;;
78205;SDS011;67480;48.920;12.880;2023-02-15T05:41:58;14.23;;;8.40;;
78205;SDS011;67480;48.920;12.880;2023-02-15T05:44:24;19.85;;;8.77;;
78205;SDS011;67480;48.920;12.880;2023-02-15T05:46:50;23.85;;;12.63;;
78205;SDS011;67480;48.920;12.880;2023-02-15T05:49:15;50.00;;;20.55;;
78205;SDS011;67480;48.920;12.880;2023-02-15T05:51:40;53.85;;;11.35;;
78205;SDS011;67480;48.920;12.880;2023-02-15T05:54:06;21.35;;;7.45;;
78205;SDS011;67480;48.920;12.880;2023-02-15T05:56:31;40.17;;;9.80;;
78205;SDS011;67480;48.920;12.880;2023-02-15T05:58:56;17.65;;;8.75;;
78205;SDS011;67480;48.920;12.880;2023-02-15T06:01:21;20.20;;;8.25;;
78205;SDS011;67480;48.920;12.880;2023-02-15T06:03:47;23.85;;;9.20;;
78205;SDS011;67480;48.920;12.880;2023-02-15T06:06:13;20.05;;;8.77;;
78205;SDS011;67480;48.920;12.880;2023-02-15T06:08:39;14.82;;;8.25;;
78205;SDS011;67480;48.920;12.880;2023-02-15T06:11:05;18.65;;;8.48;;
78205;SDS011;67480;48.920;12.880;2023-02-15T06:13:31;27.35;;;8.93;;
78205;SDS011;67480;48.920;12.880;2023-02-15T06:15:57;23.80;;;13.82;;
78205;SDS011;67480;48.920;12.880;2023-02-15T06:18:22;43.75;;;27.13;;
78205;SDS011;67480;48.920;12.880;2023-02-15T06:20:48;16.45;;;10.90;;
78205;SDS011;67480;48.920;12.880;2023-02-15T06:23:14;16.67;;;7.47;;
78205;SDS011;67480;48.920;12.880;2023-02-15T06:25:40;14.20;;;7.70;;
78205;SDS011;67480;48.920;12.880;2023-02-15T06:28:05;18.83;;;8.18;;
78205;SDS011;67480;48.920;12.880;2023-02-15T06:30:31;14.05;;;7.32;;
78205;SDS011;67480;48.920;12.880;2023-02-15T06:32:56;13.82;;;8.27;;
78205;SDS011;67480;48.920;12.880;2023-02-15T06:35:22;14.98;;;7.75;;
78205;SDS011;67480;48.920;12.880;2023-02-15T06:37:47;10.98;;;7.10;;
78205;SDS011;67480;48.920;12.880;2023-02-15T06:40:12;14.40;;;6.93;;
78205;SDS011;67480;48.920;12.880;2023-02-15T06:42:38;12.00;;;7.18;;
78205;SDS011;67480;48.920;12.880;2023-02-15T06:45:04;15.95;;;10.10;;
78205;SDS011;67480;48.920;12.880;2023-02-15T06:47:29;14.02;;;8.82;;
78205;SDS011;67480;48.920;12.880;2023-02-15T06:49:55;63.45;;;40.40;;
78205;SDS011;67480;48.920;12.880;2023-02-15T06:52:20;15.10;;;10.02;;
78205;SDS011;67480;48.920;12.880;2023-02-15T06:54:45;11.68;;;7.13;;
78205;SDS011;67480;48.920;12.880;2023-02-15T06:57:11;11.68;;;7.32;;
78205;SDS011;67480;48.920;12.880;2023-02-15T06:59:36;13.43;;;6.72;;
78205;SDS011;67480;48.920;12.880;2023-02-15T07:02:01;12.77;;;7.60;;
78205;SDS011;67480;48.920;12.880;2023-02-15T07:04:26;14.45;;;8.07;;
78205;SDS011;67480;48.920;12.880;2023-02-15T07:06:54;11.77;;;7.78;;
78205;SDS011;67480;48.920;12.880;2023-02-15T07:09:20;12.63;;;7.30;;
78205;SDS011;67480;48.920;12.880;2023-02-15T07:11:45;12.40;;;7.22;;
78205;SDS011;67480;48.920;12.880;2023-02-15T07:14:29;12.82;;;7.30;;
78205;SDS011;67480;48.920;12.880;2023-02-15T07:16:55;13.73;;;7.28;;
78205;SDS011;67480;48.920;12.880;2023-02-15T07:19:20;22.20;;;8.73;;
78205;SDS011;67480;48.920;12.880;2023-02-15T07:21:45;13.80;;;8.30;;
78205;SDS011;67480;48.920;12.880;2023-02-15T07:24:11;15.77;;;8.40;;
78205;SDS011;67480;48.920;12.880;2023-02-15T07:26:36;12.07;;;7.70;;
78205;SDS011;67480;48.920;12.880;2023-02-15T07:29:01;16.10;;;6.10;;
78205;SDS011;67480;48.920;12.880;2023-02-15T07:31:27;12.38;;;6.85;;
78205;SDS011;67480;48.920;12.880;2023-02-15T07:33:52;13.98;;;7.93;;
78205;SDS011;67480;48.920;12.880;2023-02-15T07:36:18;17.50;;;9.40;;
78205;SDS011;67480;48.920;12.880;2023-02-15T07:38:43;13.27;;;8.38;;
78205;SDS011;67480;48.920;12.880;2023-02-15T07:41:10;13.90;;;8.38;;
78205;SDS011;67480;48.920;12.880;2023-02-15T07:43:38;17.85;;;9.20;;
78205;SDS011;67480;48.920;12.880;2023-02-15T07:46:07;13.70;;;7.88;;
78205;SDS011;67480;48.920;12.880;2023-02-15T07:48:36;13.55;;;7.53;;
78205;SDS011;67480;48.920;12.880;2023-02-15T07:51:03;11.57;;;7.30;;
78205;SDS011;67480;48.920;12.880;2023-02-15T07:53:31;13.00;;;7.80;;
78205;SDS011;67480;48.920;12.880;2023-02-15T07:56:04;14.07;;;7.57;;
78205;SDS011;67480;48.920;12.880;2023-02-15T07:58:35;11.98;;;7.07;;
78205;SDS011;67480;48.920;12.880;2023-02-15T08:01:16;11.70;;;7.32;;
78205;SDS011;67480;48.920;12.880;2023-02-15T08:03:45;12.43;;;7.55;;
78205;SDS011;67480;48.920;12.880;2023-02-15T08:06:10;12.25;;;8.07;;
78205;SDS011;67480;48.920;12.880;2023-02-15T08:08:38;13.05;;;7.90;;
78205;SDS011;67480;48.920;12.880;2023-02-15T08:13:58;17.42;;;9.45;;
78205;SDS011;67480;48.920;12.880;2023-02-15T08:19:08;14.15;;;7.90;;
78205;SDS011;67480;48.920;12.880;2023-02-15T08:21:50;13.77;;;8.10;;
78205;SDS011;67480;48.920;12.880;2023-02-15T08:24:19;18.65;;;10.07;;
78205;SDS011;67480;48.920;12.880;2023-02-15T08:26:46;13.70;;;9.05;;
78205;SDS011;67480;48.920;12.880;2023-02-15T08:29:13;14.13;;;8.20;;
78205;SDS011;67480;48.920;12.880;2023-02-15T08:31:42;13.68;;;8.07;;
78205;SDS011;67480;48.920;12.880;2023-02-15T08:34:09;13.52;;;8.55;;
78205;SDS011;67480;48.920;12.880;2023-02-15T08:36:36;12.10;;;7.97;;
78205;SDS011;67480;48.920;12.880;2023-02-15T08:39:03;16.08;;;9.90;;
78205;SDS011;67480;48.920;12.880;2023-02-15T08:41:30;18.90;;;10.90;;
78205;SDS011;67480;48.920;12.880;2023-02-15T08:43:58;18.90;;;11.35;;
78205;SDS011;67480;48.920;12.880;2023-02-15T08:46:26;15.27;;;9.80;;
78205;SDS011;67480;48.920;12.880;2023-02-15T08:48:53;17.08;;;9.77;;
78205;SDS011;67480;48.920;12.880;2023-02-15T08:51:25;16.00;;;9.40;;
78205;SDS011;67480;48.920;12.880;2023-02-15T08:53:56;17.17;;;9.68;;
78205;SDS011;67480;48.920;12.880;2023-02-15T08:56:24;16.23;;;9.68;;
78205;SDS011;67480;48.920;12.880;2023-02-15T08:58:52;14.95;;;9.35;;
78205;SDS011;67480;48.920;12.880;2023-02-15T09:01:19;15.00;;;9.75;;
78205;SDS011;67480;48.920;12.880;2023-02-15T09:03:46;12.25;;;8.05;;
78205;SDS011;67480;48.920;12.880;2023-02-15T09:06:16;14.77;;;8.93;;
78205;SDS011;67480;48.920;12.880;2023-02-15T09:08:41;13.98;;;9.50;;
78205;SDS011;67480;48.920;12.880;2023-02-15T09:11:40;13.70;;;8.02;;
78205;SDS011;67480;48.920;12.880;2023-02-15T09:14:04;11.85;;;7.80;;
78205;SDS011;67480;48.920;12.880;2023-02-15T09:16:32;12.95;;;9.38;;
78205;SDS011;67480;48.920;12.880;2023-02-15T09:18:59;14.43;;;8.75;;
78205;SDS011;67480;48.920;12.880;2023-02-15T09:21:32;13.20;;;8.45;;
78205;SDS011;67480;48.920;12.880;2023-02-15T09:24:00;13.80;;;8.57;;
78205;SDS011;67480;48.920;12.880;2023-02-15T09:26:28;16.08;;;9.52;;
78205;SDS011;67480;48.920;12.880;2023-02-15T09:28:55;15.02;;;9.45;;
78205;SDS011;67480;48.920;12.880;2023-02-15T09:31:27;15.98;;;10.60;;
78205;SDS011;67480;48.920;12.880;2023-02-15T09:33:53;15.75;;;8.77;;
78205;SDS011;67480;48.920;12.880;2023-02-15T09:36:21;15.35;;;9.00;;
78205;SDS011;67480;48.920;12.880;2023-02-15T09:38:54;19.23;;;12.15;;
78205;SDS011;67480;48.920;12.880;2023-02-15T09:44:15;17.33;;;10.55;;
78205;SDS011;67480;48.920;12.880;2023-02-15T09:55:41;18.73;;;11.02;;
78205;SDS011;67480;48.920;12.880;2023-02-15T09:58:18;17.33;;;10.45;;
78205;SDS011;67480;48.920;12.880;2023-02-15T10:01:18;16.90;;;10.10;;
78205;SDS011;67480;48.920;12.880;2023-02-15T10:06:53;16.73;;;10.60;;
78205;SDS011;67480;48.920;12.880;2023-02-15T10:09:36;17.05;;;10.95;;
78205;SDS011;67480;48.920;12.880;2023-02-15T10:12:26;15.57;;;9.93;;
78205;SDS011;67480;48.920;12.880;2023-02-15T10:33:53;18.52;;;11.07;;
78205;SDS011;67480;48.920;12.880;2023-02-15T10:36:35;19.35;;;11.50;;
78205;SDS011;67480;48.920;12.880;2023-02-15T10:39:30;21.80;;;12.98;;
78205;SDS011;67480;48.920;12.880;2023-02-15T10:45:06;17.63;;;10.38;;
78205;SDS011;67480;48.920;12.880;2023-02-15T10:50:29;15.77;;;10.85;;
78205;SDS011;67480;48.920;12.880;2023-02-15T11:01:19;16.55;;;11.00;;
78205;SDS011;67480;48.920;12.880;2023-02-15T11:06:48;19.50;;;11.32;;
78205;SDS011;67480;48.920;12.880;2023-02-15T11:09:21;16.92;;;9.38;;
78205;SDS011;67480;48.920;12.880;2023-02-15T11:11:49;18.05;;;11.13;;
78205;SDS011;67480;48.920;12.880;2023-02-15T11:17:17;18.70;;;11.32;;
78205;SDS011;67480;48.920;12.880;2023-02-15T11:19:58;21.88;;;11.73;;
78205;SDS011;67480;48.920;12.880;2023-02-15T11:22:47;24.40;;;15.20;;
78205;SDS011;67480;48.920;12.880;2023-02-15T11:25:16;23.25;;;13.45;;
78205;SDS011;67480;48.920;12.880;2023-02-15T11:27:44;24.73;;;13.95;;
78205;SDS011;67480;48.920;12.880;2023-02-15T11:30:17;30.67;;;15.02;;
78205;SDS011;67480;48.920;12.880;2023-02-15T11:32:45;25.45;;;14.13;;
78205;SDS011;67480;48.920;12.880;2023-02-15T11:38:01;23.20;;;14.55;;
78205;SDS011;67480;48.920;12.880;2023-02-15T11:40:45;28.70;;;13.38;;
78205;SDS011;67480;48.920;12.880;2023-02-15T11:43:16;23.35;;;13.75;;
78205;SDS011;67480;48.920;12.880;2023-02-15T11:45:45;27.65;;;14.15;;
78205;SDS011;67480;48.920;12.880;2023-02-15T11:48:12;22.70;;;12.90;;
78205;SDS011;67480;48.920;12.880;2023-02-15T11:50:39;28.08;;;15.85;;
78205;SDS011;67480;48.920;12.880;2023-02-15T11:53:15;33.22;;;19.30;;
78205;SDS011;67480;48.920;12.880;2023-02-15T11:55:43;27.20;;;18.95;;
78205;SDS011;67480;48.920;12.880;2023-02-15T11:58:16;25.17;;;13.48;;
78205;SDS011;67480;48.920;12.880;2023-02-15T12:03:13;20.40;;;11.02;;
78205;SDS011;67480;48.920;12.880;2023-02-15T12:05:44;26.02;;;12.23;;
78205;SDS011;67480;48.920;12.880;2023-02-15T12:08:13;21.10;;;11.15;;
78205;SDS011;67480;48.920;12.880;2023-02-15T12:10:53;22.75;;;12.35;;
78205;SDS011;67480;48.920;12.880;2023-02-15T12:13:23;27.35;;;12.73;;
78205;SDS011;67480;48.920;12.880;2023-02-15T12:15:52;27.83;;;13.68;;
78205;SDS011;67480;48.920;12.880;2023-02-15T12:18:33;26.08;;;12.20;;
78205;SDS011;67480;48.920;12.880;2023-02-15T12:21:03;22.52;;;13.13;;
78205;SDS011;67480;48.920;12.880;2023-02-15T12:23:40;19.23;;;11.43;;
78205;SDS011;67480;48.920;12.880;2023-02-15T12:26:11;19.13;;;11.63;;
78205;SDS011;67480;48.920;12.880;2023-02-15T12:28:38;21.83;;;13.15;;
78205;SDS011;67480;48.920;12.880;2023-02-15T12:31:10;22.80;;;12.80;;
78205;SDS011;67480;48.920;12.880;2023-02-15T12:33:43;21.20;;;11.63;;
78205;SDS011;67480;48.920;12.880;2023-02-15T12:38:45;17.20;;;11.18;;
78205;SDS011;67480;48.920;12.880;2023-02-15T12:41:28;22.45;;;12.18;;
78205;SDS011;67480;48.920;12.880;2023-02-15T12:44:07;19.17;;;11.98;;
78205;SDS011;67480;48.920;12.880;2023-02-15T12:46:41;21.45;;;11.73;;
78205;SDS011;67480;48.920;12.880;2023-02-15T12:51:42;18.88;;;12.20;;
78205;SDS011;67480;48.920;12.880;2023-02-15T12:56:46;23.92;;;11.98;;
78205;SDS011;67480;48.920;12.880;2023-02-15T12:59:12;18.77;;;11.40;;
78205;SDS011;67480;48.920;12.880;2023-02-15T13:01:44;19.60;;;12.75;;
78205;SDS011;67480;48.920;12.880;2023-02-15T13:04:15;18.33;;;11.50;;
78205;SDS011;67480;48.920;12.880;2023-02-15T13:07:01;20.98;;;12.95;;
78205;SDS011;67480;48.920;12.880;2023-02-15T13:12:09;17.85;;;12.77;;
78205;SDS011;67480;48.920;12.880;2023-02-15T13:14:42;22.50;;;15.40;;
78205;SDS011;67480;48.920;12.880;2023-02-15T13:17:10;26.40;;;17.63;;
78205;SDS011;67480;48.920;12.880;2023-02-15T13:19:48;19.90;;;13.48;;
78205;SDS011;67480;48.920;12.880;2023-02-15T13:22:19;20.10;;;13.80;;
78205;SDS011;67480;48.920;12.880;2023-02-15T13:24:53;21.95;;;13.60;;
78205;SDS011;67480;48.920;12.880;2023-02-15T13:27:23;27.13;;;16.87;;
78205;SDS011;67480;48.920;12.880;2023-02-15T13:29:55;27.15;;;17.42;;
78205;SDS011;67480;48.920;12.880;2023-02-15T13:32:30;19.08;;;12.50;;
78205;SDS011;67480;48.920;12.880;2023-02-15T13:34:59;22.45;;;14.05;;
78205;SDS011;67480;48.920;12.880;2023-02-15T13:45:56;21.02;;;12.23;;
78205;SDS011;67480;48.920;12.880;2023-02-15T13:53:55;23.73;;;13.70;;
78205;SDS011;67480;48.920;12.880;2023-02-15T13:59:02;22.13;;;13.82;;
78205;SDS011;67480;48.920;12.880;2023-02-15T14:01:51;22.80;;;13.85;;
78205;SDS011;67480;48.920;12.880;2023-02-15T14:20:17;22.63;;;13.65;;
78205;SDS011;67480;48.920;12.880;2023-02-15T14:23:02;24.70;;;14.23;;
78205;SDS011;67480;48.920;12.880;2023-02-15T14:31:11;25.45;;;15.20;;
78205;SDS011;67480;48.920;12.880;2023-02-15T14:33:52;26.45;;;15.65;;
78205;SDS011;67480;48.920;12.880;2023-02-15T14:36:29;21.00;;;14.10;;
78205;SDS011;67480;48.920;12.880;2023-02-15T14:39:44;23.20;;;15.00;;
78205;SDS011;67480;48.920;12.880;2023-02-15T14:42:36;26.65;;;15.82;;
78205;SDS011;67480;48.920;12.880;2023-02-15T14:48:07;22.33;;;13.93;;
78205;SDS011;67480;48.920;12.880;2023-02-15T14:50:39;24.40;;;15.27;;
78205;SDS011;67480;48.920;12.880;2023-02-15T14:58:35;21.50;;;13.13;;
78205;SDS011;67480;48.920;12.880;2023-02-15T15:01:06;22.88;;;13.55;;
78205;SDS011;67480;48.920;12.880;2023-02-15T15:03:34;21.80;;;13.02;;
78205;SDS011;67480;48.920;12.880;2023-02-15T15:06:02;24.00;;;14.88;;
78205;SDS011;67480;48.920;12.880;2023-02-15T15:08:33;24.75;;;14.77;;
78205;SDS011;67480;48.920;12.880;2023-02-15T15:13:56;24.35;;;15.25;;
78205;SDS011;67480;48.920;12.880;2023-02-15T15:16:30;24.75;;;14.27;;
78205;SDS011;67480;48.920;12.880;2023-02-15T15:19:11;26.98;;;15.60;;
78205;SDS011;67480;48.920;12.880;2023-02-15T15:29:58;24.75;;;15.20;;
78205;SDS011;67480;48.920;12.880;2023-02-15T15:32:24;26.77;;;15.27;;
78205;SDS011;67480;48.920;12.880;2023-02-15T15:37:51;23.83;;;14.88;;
78205;SDS011;67480;48.920;12.880;2023-02-15T15:43:30;26.13;;;15.23;;
78205;SDS011;67480;48.920;12.880;2023-02-15T15:48:57;27.30;;;15.90;;
78205;SDS011;67480;48.920;12.880;2023-02-15T15:51:29;25.52;;;14.10;;
78205;SDS011;67480;48.920;12.880;2023-02-15T15:53:56;26.08;;;16.88;;
78205;SDS011;67480;48.920;12.880;2023-02-15T15:59:34;29.50;;;16.23;;
78205;SDS011;67480;48.920;12.880;2023-02-15T16:02:11;32.50;;;19.52;;
78205;SDS011;67480;48.920;12.880;2023-02-15T16:04:40;31.40;;;15.77;;
78205;SDS011;67480;48.920;12.880;2023-02-15T16:07:39;32.60;;;18.83;;
78205;SDS011;67480;48.920;12.880;2023-02-15T16:12:31;31.13;;;17.90;;
78205;SDS011;67480;48.920;12.880;2023-02-15T16:15:00;40.13;;;23.73;;
78205;SDS011;67480;48.920;12.880;2023-02-15T16:17:38;32.45;;;20.48;;
78205;SDS011;67480;48.920;12.880;2023-02-15T16:20:30;33.03;;;21.00;;
78205;SDS011;67480;48.920;12.880;2023-02-15T16:26:13;28.80;;;15.63;;
78205;SDS011;67480;48.920;12.880;2023-02-15T16:28:52;26.08;;;15.23;;
78205;SDS011;67480;48.920;12.880;2023-02-15T16:31:19;25.92;;;15.32;;
78205;SDS011;67480;48.920;12.880;2023-02-15T16:33:47;25.77;;;14.75;;
78205;SDS011;67480;48.920;12.880;2023-02-15T16:36:20;24.75;;;14.82;;
78205;SDS011;67480;48.920;12.880;2023-02-15T16:41:22;25.02;;;14.77;;
78205;SDS011;67480;48.920;12.880;2023-02-15T16:43:49;28.77;;;16.13;;
78205;SDS011;67480;48.920;12.880;2023-02-15T16:49:21;34.42;;;17.63;;
78205;SDS011;67480;48.920;12.880;2023-02-15T16:51:59;45.35;;;18.60;;
78205;SDS011;67480;48.920;12.880;2023-02-15T16:54:27;38.38;;;16.92;;
78205;SDS011;67480;48.920;12.880;2023-02-15T16:56:56;34.22;;;16.00;;
78205;SDS011;67480;48.920;12.880;2023-02-15T16:59:39;36.38;;;17.70;;
78205;SDS011;67480;48.920;12.880;2023-02-15T17:02:12;29.98;;;16.73;;
78205;SDS011;67480;48.920;12.880;2023-02-15T17:04:41;33.35;;;17.58;;
78205;SDS011;67480;48.920;12.880;2023-02-15T17:07:17;31.20;;;18.17;;
78205;SDS011;67480;48.920;12.880;2023-02-15T17:09:53;31.40;;;17.48;;
78205;SDS011;67480;48.920;12.880;2023-02-15T17:13:21;27.63;;;15.98;;
78205;SDS011;67480;48.920;12.880;2023-02-15T17:15:26;32.17;;;15.60;;
78205;SDS011;67480;48.920;12.880;2023-02-15T17:18:26;42.03;;;20.17;;
78205;SDS011;67480;48.920;12.880;2023-02-15T17:21:10;28.67;;;14.18;;
78205;SDS011;67480;48.920;12.880;2023-02-15T17:23:50;35.33;;;19.77;;
78205;SDS011;67480;48.920;12.880;2023-02-15T17:26:24;29.15;;;16.88;;
78205;SDS011;67480;48.920;12.880;2023-02-15T17:28:55;31.83;;;17.58;;
78205;SDS011;67480;48.920;12.880;2023-02-15T17:31:24;29.05;;;16.30;;
78205;SDS011;67480;48.920;12.880;2023-02-15T17:33:53;31.52;;;17.48;;
78205;SDS011;67480;48.920;12.880;2023-02-15T17:36:21;30.23;;;16.52;;
78205;SDS011;67480;48.920;12.880;2023-02-15T17:41:23;38.53;;;19.10;;
78205;SDS011;67480;48.920;12.880;2023-02-15T17:43:49;37.28;;;20.10;;
78205;SDS011;67480;48.920;12.880;2023-02-15T17:46:14;31.77;;;18.65;;
78205;SDS011;67480;48.920;12.880;2023-02-15T17:48:43;38.78;;;21.23;;